Time,TemperatureF,DewpointF,PressureIn,WindDirection,WindDirectionDegrees,WindSpeedMPH,WindSpeedGustMPH,Humidity,HourlyPrecipIn,Conditions,Clouds,dailyrainin,SolarRadiationWatts/m^2,SoftwareType,DateUTC
2013-05-26 00:12:00,54.0,50.0,-100.00,SE,125,14.0,23.0,86,0.00,,,0.00,0.000000,,2013-05-26 05:12:00,
2013-05-26 00:22:00,54.0,50.0,-100.00,SE,125,14.0,23.0,86,0.00,,,0.00,0.000000,,2013-05-26 05:22:00,
2013-05-26 00:32:00,54.0,50.0,-100.00,SE,125,14.0,23.0,86,0.00,,,0.00,0.000000,,2013-05-26 05:32:00,
2013-05-26 00:42:00,54.0,50.0,-100.00,SE,125,14.0,23.0,86,0.00,,,0.00,0.000000,,2013-05-26 05:42:00,
2013-05-26 00:51:00,53.0,49.0,-100.00,SE,128,11.0,20.0,86,0.00,,,0.00,0.000000,,2013-05-26 05:51:00,
2013-05-26 01:12:00,53.0,49.0,-100.00,SE,128,11.0,20.0,86,0.00,,,0.00,0.000000,,2013-05-26 06:12:00,
2013-05-26 01:22:00,53.0,49.0,-100.00,SE,128,11.0,20.0,86,0.00,,,0.00,0.000000,,2013-05-26 06:22:00,
2013-05-26 01:32:00,53.0,49.0,-100.00,SE,128,11.0,20.0,86,0.00,,,0.00,0.000000,,2013-05-26 06:32:00,
2013-05-26 01:42:00,53.0,49.0,-100.00,SE,128,11.0,20.0,86,0.00,,,0.00,0.000000,,2013-05-26 06:42:00,
2013-05-26 01:51:00,53.0,50.0,-100.00,SE,134,12.0,22.0,88,0.00,,,0.00,0.000000,,2013-05-26 06:51:00,
2013-05-26 02:11:00,53.0,50.0,-100.00,SE,134,12.0,22.0,88,0.00,,,0.00,0.000000,,2013-05-26 07:11:00,
2013-05-26 02:22:00,53.0,50.0,-100.00,SE,134,12.0,22.0,88,0.00,,,0.00,0.000000,,2013-05-26 07:22:00,
2013-05-26 02:32:00,53.0,50.0,-100.00,SE,134,12.0,22.0,88,0.00,,,0.00,0.000000,,2013-05-26 07:32:00,
2013-05-26 02:42:00,53.0,50.0,-100.00,SE,134,12.0,22.0,88,0.00,,,0.00,0.000000,,2013-05-26 07:42:00,
2013-05-26 02:51:00,51.0,48.0,-100.00,East,100,14.0,20.0,90,0.00,,,0.00,0.000000,,2013-05-26 07:51:00,
2013-05-26 03:12:00,51.0,48.0,-100.00,East,100,14.0,20.0,90,0.00,,,0.00,0.000000,,2013-05-26 08:12:00,
2013-05-26 03:21:00,51.0,48.0,-100.00,East,100,14.0,20.0,90,0.00,,,0.00,0.000000,,2013-05-26 08:21:00,
2013-05-26 03:32:00,51.0,48.0,-100.00,East,100,14.0,20.0,90,0.00,,,0.00,0.000000,,2013-05-26 08:32:00,
2013-05-26 03:42:00,51.0,48.0,-100.00,East,100,14.0,20.0,90,0.00,,,0.00,0.000000,,2013-05-26 08:42:00,
2013-05-26 03:51:00,51.0,48.0,-100.00,ESE,118,13.0,22.0,90,0.00,,,0.00,0.000000,,2013-05-26 08:51:00,
2013-05-26 04:11:00,51.0,48.0,-100.00,ESE,118,13.0,22.0,90,0.00,,,0.00,0.000000,,2013-05-26 09:11:00,
2013-05-26 04:21:00,51.0,48.0,-100.00,ESE,118,13.0,22.0,90,0.00,,,0.00,0.000000,,2013-05-26 09:21:00,
2013-05-26 04:33:00,51.0,48.0,-100.00,ESE,118,13.0,22.0,90,0.00,,,0.00,0.000000,,2013-05-26 09:33:00,
2013-05-26 04:42:00,51.0,48.0,-100.00,ESE,118,13.0,22.0,90,0.00,,,0.00,0.000000,,2013-05-26 09:42:00,
2013-05-26 04:51:00,51.0,48.0,-100.00,ESE,106,12.0,18.0,90,0.00,,,0.00,0.000000,,2013-05-26 09:51:00,
2013-05-26 05:12:00,51.0,48.0,-100.00,ESE,106,12.0,18.0,90,0.00,,,0.00,0.000000,,2013-05-26 10:12:00,
2013-05-26 05:23:00,51.0,48.0,-100.00,ESE,106,12.0,18.0,90,0.00,,,0.00,0.000000,,2013-05-26 10:23:00,
2013-05-26 05:33:00,51.0,48.0,-100.00,ESE,106,12.0,18.0,90,0.00,,,0.00,0.000000,,2013-05-26 10:33:00,
2013-05-26 05:42:00,51.0,48.0,-100.00,ESE,106,12.0,18.0,90,0.00,,,0.00,0.000000,,2013-05-26 10:42:00,
2013-05-26 05:51:00,51.0,48.0,-100.00,ESE,117,11.0,19.0,88,0.00,,,0.00,0.000000,,2013-05-26 10:51:00,
2013-05-26 06:11:00,51.0,48.0,-100.00,ESE,117,11.0,19.0,88,0.00,,,0.00,0.000000,,2013-05-26 11:11:00,
2013-05-26 06:22:00,51.0,48.0,-100.00,ESE,117,11.0,19.0,88,0.00,,,0.00,0.000000,,2013-05-26 11:22:00,
2013-05-26 06:32:00,51.0,48.0,-100.00,ESE,117,11.0,19.0,88,0.00,,,0.00,0.000000,,2013-05-26 11:32:00,
2013-05-26 06:42:00,51.0,48.0,-100.00,ESE,117,11.0,19.0,88,0.00,,,0.00,0.000000,,2013-05-26 11:42:00,
2013-05-26 06:51:00,51.0,47.0,-100.00,East,101,17.0,24.0,87,0.00,,,0.00,6.000000,,2013-05-26 11:51:00,
2013-05-26 07:12:00,51.0,47.0,-100.00,East,101,17.0,24.0,87,0.00,,,0.00,6.000000,,2013-05-26 12:12:00,
2013-05-26 07:21:00,51.0,47.0,-100.00,East,101,17.0,24.0,87,0.00,,,0.00,6.000000,,2013-05-26 12:21:00,
2013-05-26 07:32:00,51.0,47.0,-100.00,East,101,17.0,24.0,87,0.00,,,0.00,6.000000,,2013-05-26 12:32:00,
2013-05-26 07:42:00,51.0,47.0,-100.00,East,101,17.0,24.0,87,0.00,,,0.00,6.000000,,2013-05-26 12:42:00,
2013-05-26 07:51:00,51.0,46.0,-100.00,SE,125,9.0,28.0,82,0.00,,,0.00,44.000000,,2013-05-26 12:51:00,
2013-05-26 08:11:00,51.0,46.0,-100.00,SE,125,9.0,28.0,82,0.00,,,0.00,44.000000,,2013-05-26 13:11:00,
2013-05-26 08:21:00,51.0,46.0,-100.00,SE,125,9.0,28.0,82,0.00,,,0.00,44.000000,,2013-05-26 13:21:00,
2013-05-26 08:32:00,51.0,46.0,-100.00,SE,125,9.0,28.0,82,0.00,,,0.00,44.000000,,2013-05-26 13:32:00,
2013-05-26 08:42:00,51.0,46.0,-100.00,SE,125,9.0,28.0,82,0.00,,,0.00,44.000000,,2013-05-26 13:42:00,
2013-05-26 08:51:00,51.0,46.0,-100.00,SSE,148,8.0,16.0,83,0.00,,,0.00,50.000000,,2013-05-26 13:51:00,
2013-05-26 09:11:00,51.0,46.0,-100.00,SSE,148,8.0,16.0,83,0.00,,,0.00,50.000000,,2013-05-26 14:11:00,
2013-05-26 09:21:00,51.0,46.0,-100.00,SSE,148,8.0,16.0,83,0.00,,,0.00,50.000000,,2013-05-26 14:21:00,
2013-05-26 09:32:00,51.0,46.0,-100.00,SSE,148,8.0,16.0,83,0.00,,,0.00,50.000000,,2013-05-26 14:32:00,
2013-05-26 09:42:00,51.0,46.0,-100.00,SSE,148,8.0,16.0,83,0.00,,,0.00,50.000000,,2013-05-26 14:42:00,
2013-05-26 09:51:00,53.0,48.0,-100.00,SE,131,14.0,21.0,84,0.00,,,0.00,66.000000,,2013-05-26 14:51:00,
2013-05-26 10:12:00,53.0,48.0,-100.00,SE,131,14.0,21.0,84,0.00,,,0.00,66.000000,,2013-05-26 15:12:00,
2013-05-26 10:22:00,53.0,48.0,-100.00,SE,131,14.0,21.0,84,0.00,,,0.00,66.000000,,2013-05-26 15:22:00,
2013-05-26 10:33:00,53.0,48.0,-100.00,SE,131,14.0,21.0,84,0.00,,,0.00,66.000000,,2013-05-26 15:33:00,
2013-05-26 10:43:00,53.0,48.0,-100.00,SE,131,14.0,21.0,84,0.00,,,0.00,66.000000,,2013-05-26 15:43:00,
2013-05-26 10:51:00,53.0,48.0,-100.00,ESE,112,13.0,32.0,83,0.00,,,0.00,166.000000,,2013-05-26 15:51:00,
2013-05-26 11:12:00,53.0,48.0,-100.00,ESE,112,13.0,32.0,83,0.00,,,0.00,166.000000,,2013-05-26 16:12:00,
2013-05-26 11:23:00,53.0,48.0,-100.00,ESE,112,13.0,32.0,83,0.00,,,0.00,166.000000,,2013-05-26 16:23:00,
2013-05-26 11:33:00,53.0,48.0,-100.00,ESE,112,13.0,32.0,83,0.00,,,0.00,166.000000,,2013-05-26 16:33:00,
2013-05-26 11:42:00,53.0,48.0,-100.00,ESE,112,13.0,32.0,83,0.00,,,0.00,166.000000,,2013-05-26 16:42:00,
2013-05-26 11:51:00,53.0,49.0,-100.00,SSE,168,7.0,20.0,87,0.00,,,0.00,96.000000,,2013-05-26 16:51:00,
2013-05-26 12:11:00,53.0,49.0,-100.00,SSE,168,7.0,20.0,87,0.00,,,0.00,96.000000,,2013-05-26 17:11:00,
2013-05-26 12:22:00,53.0,49.0,-100.00,SSE,168,7.0,20.0,87,0.00,,,0.00,96.000000,,2013-05-26 17:22:00,
2013-05-26 12:32:00,53.0,49.0,-100.00,SSE,168,7.0,20.0,87,0.00,,,0.00,96.000000,,2013-05-26 17:32:00,
2013-05-26 12:42:00,53.0,49.0,-100.00,SSE,168,7.0,20.0,87,0.00,,,0.00,96.000000,,2013-05-26 17:42:00,
2013-05-26 12:51:00,54.0,49.0,-100.00,SE,127,15.0,23.0,84,0.00,,,0.00,134.000000,,2013-05-26 17:51:00,
2013-05-26 13:12:00,54.0,49.0,-100.00,SE,127,15.0,23.0,84,0.00,,,0.00,134.000000,,2013-05-26 18:12:00,
2013-05-26 13:21:00,54.0,49.0,-100.00,SE,127,15.0,23.0,84,0.00,,,0.00,134.000000,,2013-05-26 18:21:00,
2013-05-26 13:32:00,54.0,49.0,-100.00,SE,127,15.0,23.0,84,0.00,,,0.00,134.000000,,2013-05-26 18:32:00,
2013-05-26 13:42:00,54.0,49.0,-100.00,SE,127,15.0,23.0,84,0.00,,,0.00,134.000000,,2013-05-26 18:42:00,
2013-05-26 13:51:00,55.0,50.0,-100.00,ESE,111,15.0,27.0,82,0.00,,,0.00,324.000000,,2013-05-26 18:51:00,
2013-05-26 14:11:00,55.0,50.0,-100.00,ESE,111,15.0,27.0,82,0.00,,,0.00,324.000000,,2013-05-26 19:11:00,
2013-05-26 14:22:00,55.0,50.0,-100.00,ESE,111,15.0,27.0,82,0.00,,,0.00,324.000000,,2013-05-26 19:22:00,
2013-05-26 14:32:00,55.0,50.0,-100.00,ESE,111,15.0,27.0,82,0.00,,,0.00,324.000000,,2013-05-26 19:32:00,
2013-05-26 14:42:00,55.0,50.0,-100.00,ESE,111,15.0,27.0,82,0.00,,,0.00,324.000000,,2013-05-26 19:42:00,
2013-05-26 14:51:00,55.0,50.0,-100.00,ESE,112,12.0,20.0,83,0.00,,,0.00,203.000000,,2013-05-26 19:51:00,
2013-05-26 15:11:00,55.0,50.0,-100.00,ESE,112,12.0,20.0,83,0.00,,,0.00,203.000000,,2013-05-26 20:11:00,
2013-05-26 15:22:00,55.0,50.0,-100.00,ESE,112,12.0,20.0,83,0.00,,,0.00,203.000000,,2013-05-26 20:22:00,
2013-05-26 15:32:00,55.0,50.0,-100.00,ESE,112,12.0,20.0,83,0.00,,,0.00,203.000000,,2013-05-26 20:32:00,
2013-05-26 15:42:00,55.0,50.0,-100.00,ESE,112,12.0,20.0,83,0.00,,,0.00,203.000000,,2013-05-26 20:42:00,
2013-05-26 15:51:00,54.0,50.0,-100.00,ESE,105,12.0,23.0,85,0.00,,,0.00,132.000000,,2013-05-26 20:51:00,
2013-05-26 16:11:00,54.0,50.0,-100.00,ESE,105,12.0,23.0,85,0.00,,,0.00,132.000000,,2013-05-26 21:11:00,
2013-05-26 16:22:00,54.0,50.0,-100.00,ESE,105,12.0,23.0,85,0.00,,,0.00,132.000000,,2013-05-26 21:22:00,
2013-05-26 16:33:00,54.0,50.0,-100.00,ESE,105,12.0,23.0,85,0.00,,,0.00,132.000000,,2013-05-26 21:33:00,
2013-05-26 16:43:00,54.0,50.0,-100.00,ESE,105,12.0,23.0,85,0.00,,,0.00,132.000000,,2013-05-26 21:43:00,
2013-05-26 16:51:00,54.0,50.0,-100.00,ESE,111,12.0,20.0,86,0.00,,,0.00,115.000000,,2013-05-26 21:51:00,
2013-05-26 17:12:00,54.0,50.0,-100.00,ESE,111,12.0,20.0,86,0.00,,,0.00,115.000000,,2013-05-26 22:12:00,
2013-05-26 17:23:00,54.0,50.0,-100.00,ESE,111,12.0,20.0,86,0.00,,,0.00,115.000000,,2013-05-26 22:23:00,
2013-05-26 17:33:00,54.0,50.0,-100.00,ESE,111,12.0,20.0,86,0.00,,,0.00,115.000000,,2013-05-26 22:33:00,
2013-05-26 17:42:00,54.0,50.0,-100.00,ESE,111,12.0,20.0,86,0.00,,,0.00,115.000000,,2013-05-26 22:42:00,
2013-05-26 17:51:00,54.0,49.0,-100.00,ESE,116,11.0,19.0,84,0.00,,,0.00,105.000000,,2013-05-26 22:51:00,
2013-05-26 18:12:00,54.0,49.0,-100.00,ESE,116,11.0,19.0,84,0.00,,,0.00,105.000000,,2013-05-26 23:12:00,
2013-05-26 18:22:00,54.0,49.0,-100.00,ESE,116,11.0,19.0,84,0.00,,,0.00,105.000000,,2013-05-26 23:22:00,
2013-05-26 18:32:00,54.0,49.0,-100.00,ESE,116,11.0,19.0,84,0.00,,,0.00,105.000000,,2013-05-26 23:32:00,
2013-05-26 18:43:00,54.0,49.0,-100.00,ESE,116,11.0,19.0,84,0.00,,,0.00,105.000000,,2013-05-26 23:43:00,
2013-05-26 18:51:00,55.0,50.0,-100.00,ESE,120,10.0,17.0,83,0.00,,,0.00,101.000000,,2013-05-26 23:51:00,
2013-05-26 19:11:00,55.0,50.0,-100.00,ESE,120,10.0,17.0,83,0.00,,,0.00,101.000000,,2013-05-27 00:11:00,
2013-05-26 19:22:00,55.0,50.0,-100.00,ESE,120,10.0,17.0,83,0.00,,,0.00,101.000000,,2013-05-27 00:22:00,
2013-05-26 19:32:00,55.0,50.0,-100.00,ESE,120,10.0,17.0,83,0.00,,,0.00,101.000000,,2013-05-27 00:32:00,
2013-05-26 19:42:00,55.0,50.0,-100.00,ESE,120,10.0,17.0,83,0.00,,,0.00,101.000000,,2013-05-27 00:42:00,
2013-05-26 19:51:00,55.0,51.0,-100.00,ESE,116,11.0,19.0,86,0.00,,,0.00,39.000000,,2013-05-27 00:51:00,
2013-05-26 20:11:00,55.0,51.0,-100.00,ESE,116,11.0,19.0,86,0.00,,,0.00,39.000000,,2013-05-27 01:11:00,
2013-05-26 20:22:00,55.0,51.0,-100.00,ESE,116,11.0,19.0,86,0.00,,,0.00,39.000000,,2013-05-27 01:22:00,
2013-05-26 20:31:00,55.0,51.0,-100.00,ESE,116,11.0,19.0,86,0.00,,,0.00,39.000000,,2013-05-27 01:31:00,
2013-05-26 20:42:00,55.0,51.0,-100.00,ESE,116,11.0,19.0,86,0.00,,,0.00,39.000000,,2013-05-27 01:42:00,
2013-05-26 20:51:00,54.0,51.0,-100.00,ESE,104,12.0,20.0,90,0.00,,,0.00,15.000000,,2013-05-27 01:51:00,
2013-05-26 21:11:00,54.0,51.0,-100.00,ESE,104,12.0,20.0,90,0.00,,,0.00,15.000000,,2013-05-27 02:11:00,
2013-05-26 21:22:00,54.0,51.0,-100.00,ESE,104,12.0,20.0,90,0.00,,,0.00,15.000000,,2013-05-27 02:22:00,
2013-05-26 21:32:00,54.0,51.0,-100.00,ESE,104,12.0,20.0,90,0.00,,,0.00,15.000000,,2013-05-27 02:32:00,
2013-05-26 21:42:00,54.0,51.0,-100.00,ESE,104,12.0,20.0,90,0.00,,,0.00,15.000000,,2013-05-27 02:42:00,
2013-05-26 21:51:00,53.0,51.0,-100.00,ESE,118,12.0,18.0,92,0.00,,,0.00,0.000000,,2013-05-27 02:51:00,
2013-05-26 22:11:00,53.0,51.0,-100.00,ESE,118,12.0,18.0,92,0.00,,,0.00,0.000000,,2013-05-27 03:11:00,
2013-05-26 22:21:00,53.0,51.0,-100.00,ESE,118,12.0,18.0,92,0.00,,,0.00,0.000000,,2013-05-27 03:21:00,
2013-05-26 22:33:00,53.0,51.0,-100.00,ESE,118,12.0,18.0,92,0.00,,,0.00,0.000000,,2013-05-27 03:33:00,
2013-05-26 22:43:00,53.0,51.0,-100.00,ESE,118,12.0,18.0,92,0.00,,,0.00,0.000000,,2013-05-27 03:43:00,
2013-05-26 22:51:00,53.0,52.0,-100.00,ESE,114,10.0,19.0,95,0.00,,,0.00,0.000000,,2013-05-27 03:51:00,
2013-05-26 23:12:00,53.0,52.0,-100.00,ESE,114,10.0,19.0,95,0.00,,,0.00,0.000000,,2013-05-27 04:12:00,
2013-05-26 23:23:00,53.0,52.0,-100.00,ESE,114,10.0,19.0,95,0.00,,,0.00,0.000000,,2013-05-27 04:23:00,
2013-05-26 23:33:00,53.0,52.0,-100.00,ESE,114,10.0,19.0,95,0.00,,,0.00,0.000000,,2013-05-27 04:33:00,
2013-05-26 23:43:00,53.0,52.0,-100.00,ESE,114,10.0,19.0,95,0.00,,,0.00,0.000000,,2013-05-27 04:43:00,
2013-05-26 23:51:00,53.0,52.0,-100.00,ESE,117,10.0,19.0,96,0.00,,,0.00,0.000000,,2013-05-27 04:51:00,